sensor_id;sensor_type;location;lat;lon;timestamp;P1;durP1;ratioP1;P2;durP2;ratioP2
12407;SDS011;6268;48.188;17.134;2024-02-16T00:00:24;27.90;;;25.20;;
12407;SDS011;6268;48.188;17.134;2024-02-16T00:02:53;28.27;;;25.40;;
12407;SDS011;6268;48.188;17.134;2024-02-16T00:05:22;28.35;;;25.42;;
12407;SDS011;6268;48.188;17.134;2024-02-16T00:07:50;27.15;;;24.60;;
12407;SDS011;6268;48.188;17.134;2024-02-16T00:10:19;29.73;;;25.58;;
12407;SDS011;6268;48.188;17.134;2024-02-16T00:12:48;29.52;;;26.40;;
12407;SDS011;6268;48.188;17.134;2024-02-16T00:15:18;30.05;;;26.65;;
12407;SDS011;6268;48.188;17.134;2024-02-16T00:17:46;28.05;;;25.17;;
12407;SDS011;6268;48.188;17.134;2024-02-16T00:20:15;27.23;;;24.52;;
12407;SDS011;6268;48.188;17.134;2024-02-16T00:22:45;27.90;;;25.05;;
12407;SDS011;6268;48.188;17.134;2024-02-16T00:25:14;30.45;;;27.20;;
12407;SDS011;6268;48.188;17.134;2024-02-16T00:27:42;29.67;;;25.77;;
12407;SDS011;6268;48.188;17.134;2024-02-16T00:30:11;29.33;;;26.30;;
12407;SDS011;6268;48.188;17.134;2024-02-16T00:32:41;27.70;;;24.75;;
12407;SDS011;6268;48.188;17.134;2024-02-16T00:35:12;29.73;;;26.58;;
12407;SDS011;6268;48.188;17.134;2024-02-16T00:37:40;28.95;;;26.05;;
12407;SDS011;6268;48.188;17.134;2024-02-16T00:40:09;29.95;;;26.95;;
12407;SDS011;6268;48.188;17.134;2024-02-16T00:42:38;33.25;;;25.77;;
12407;SDS011;6268;48.188;17.134;2024-02-16T00:45:07;27.92;;;24.98;;
12407;SDS011;6268;48.188;17.134;2024-02-16T00:47:36;29.65;;;26.52;;
12407;SDS011;6268;48.188;17.134;2024-02-16T00:50:08;29.60;;;26.60;;
12407;SDS011;6268;48.188;17.134;2024-02-16T00:52:37;29.92;;;26.83;;
12407;SDS011;6268;48.188;17.134;2024-02-16T00:55:07;27.85;;;24.23;;
12407;SDS011;6268;48.188;17.134;2024-02-16T00:57:36;29.13;;;26.25;;
12407;SDS011;6268;48.188;17.134;2024-02-16T01:00:05;26.98;;;24.25;;
12407;SDS011;6268;48.188;17.134;2024-02-16T01:02:36;27.80;;;24.83;;
12407;SDS011;6268;48.188;17.134;2024-02-16T01:05:04;28.40;;;25.42;;
12407;SDS011;6268;48.188;17.134;2024-02-16T01:07:35;27.88;;;24.98;;
12407;SDS011;6268;48.188;17.134;2024-02-16T01:10:03;27.42;;;24.60;;
12407;SDS011;6268;48.188;17.134;2024-02-16T01:12:32;27.80;;;25.02;;
12407;SDS011;6268;48.188;17.134;2024-02-16T01:15:01;28.42;;;25.48;;
12407;SDS011;6268;48.188;17.134;2024-02-16T01:17:29;28.73;;;25.90;;
12407;SDS011;6268;48.188;17.134;2024-02-16T01:19:59;28.60;;;25.80;;
12407;SDS011;6268;48.188;17.134;2024-02-16T01:22:28;30.35;;;27.05;;
12407;SDS011;6268;48.188;17.134;2024-02-16T01:24:58;30.80;;;25.58;;
12407;SDS011;6268;48.188;17.134;2024-02-16T01:27:26;33.90;;;24.80;;
12407;SDS011;6268;48.188;17.134;2024-02-16T01:29:55;33.95;;;25.38;;
12407;SDS011;6268;48.188;17.134;2024-02-16T01:32:23;29.45;;;24.08;;
12407;SDS011;6268;48.188;17.134;2024-02-16T01:34:52;28.95;;;23.75;;
12407;SDS011;6268;48.188;17.134;2024-02-16T01:37:20;32.80;;;25.02;;
12407;SDS011;6268;48.188;17.134;2024-02-16T01:39:49;29.38;;;24.90;;
12407;SDS011;6268;48.188;17.134;2024-02-16T01:42:22;30.92;;;24.52;;
12407;SDS011;6268;48.188;17.134;2024-02-16T01:44:50;29.45;;;24.83;;
12407;SDS011;6268;48.188;17.134;2024-02-16T01:47:18;29.30;;;25.70;;
12407;SDS011;6268;48.188;17.134;2024-02-16T01:49:47;29.75;;;26.48;;
12407;SDS011;6268;48.188;17.134;2024-02-16T01:52:16;29.35;;;26.25;;
12407;SDS011;6268;48.188;17.134;2024-02-16T01:54:45;29.88;;;26.30;;
12407;SDS011;6268;48.188;17.134;2024-02-16T01:57:13;29.65;;;25.30;;
12407;SDS011;6268;48.188;17.134;2024-02-16T01:59:44;28.05;;;25.17;;
12407;SDS011;6268;48.188;17.134;2024-02-16T02:02:12;29.55;;;26.65;;
12407;SDS011;6268;48.188;17.134;2024-02-16T02:04:40;29.48;;;25.27;;
12407;SDS011;6268;48.188;17.134;2024-02-16T02:07:13;30.40;;;27.30;;
12407;SDS011;6268;48.188;17.134;2024-02-16T02:09:43;30.55;;;27.48;;
12407;SDS011;6268;48.188;17.134;2024-02-16T02:12:11;30.00;;;26.60;;
12407;SDS011;6268;48.188;17.134;2024-02-16T02:14:40;33.45;;;25.77;;
12407;SDS011;6268;48.188;17.134;2024-02-16T02:17:10;29.40;;;26.20;;
12407;SDS011;6268;48.188;17.134;2024-02-16T02:19:38;29.65;;;26.73;;
12407;SDS011;6268;48.188;17.134;2024-02-16T02:22:11;28.73;;;25.25;;
12407;SDS011;6268;48.188;17.134;2024-02-16T02:24:42;29.92;;;24.65;;
12407;SDS011;6268;48.188;17.134;2024-02-16T02:27:10;30.58;;;26.20;;
12407;SDS011;6268;48.188;17.134;2024-02-16T02:29:40;30.05;;;26.83;;
12407;SDS011;6268;48.188;17.134;2024-02-16T02:32:08;31.05;;;26.98;;
12407;SDS011;6268;48.188;17.134;2024-02-16T02:34:37;33.70;;;28.05;;
12407;SDS011;6268;48.188;17.134;2024-02-16T02:37:06;31.30;;;27.92;;
12407;SDS011;6268;48.188;17.134;2024-02-16T02:39:35;29.23;;;25.75;;
12407;SDS011;6268;48.188;17.134;2024-02-16T02:42:04;31.70;;;26.88;;
12407;SDS011;6268;48.188;17.134;2024-02-16T02:44:33;31.63;;;28.35;;
12407;SDS011;6268;48.188;17.134;2024-02-16T02:47:01;31.63;;;25.73;;
12407;SDS011;6268;48.188;17.134;2024-02-16T02:49:30;31.92;;;28.63;;
12407;SDS011;6268;48.188;17.134;2024-02-16T02:52:00;31.27;;;26.30;;
12407;SDS011;6268;48.188;17.134;2024-02-16T02:54:28;34.45;;;26.88;;
12407;SDS011;6268;48.188;17.134;2024-02-16T02:56:58;31.02;;;25.05;;
12407;SDS011;6268;48.188;17.134;2024-02-16T02:59:26;30.40;;;26.75;;
12407;SDS011;6268;48.188;17.134;2024-02-16T03:01:55;35.25;;;26.25;;
12407;SDS011;6268;48.188;17.134;2024-02-16T03:04:23;30.95;;;27.58;;
12407;SDS011;6268;48.188;17.134;2024-02-16T03:06:52;32.72;;;27.45;;
12407;SDS011;6268;48.188;17.134;2024-02-16T03:09:21;29.98;;;26.23;;
12407;SDS011;6268;48.188;17.134;2024-02-16T03:11:50;30.23;;;26.95;;
12407;SDS011;6268;48.188;17.134;2024-02-16T03:14:21;33.75;;;27.63;;
12407;SDS011;6268;48.188;17.134;2024-02-16T03:16:49;34.10;;;26.33;;
12407;SDS011;6268;48.188;17.134;2024-02-16T03:19:17;30.17;;;26.92;;
12407;SDS011;6268;48.188;17.134;2024-02-16T03:21:46;31.88;;;28.65;;
12407;SDS011;6268;48.188;17.134;2024-02-16T03:24:15;30.13;;;27.08;;
12407;SDS011;6268;48.188;17.134;2024-02-16T03:26:43;30.77;;;26.48;;
12407;SDS011;6268;48.188;17.134;2024-02-16T03:29:12;31.73;;;25.40;;
12407;SDS011;6268;48.188;17.134;2024-02-16T03:31:42;29.13;;;26.00;;
12407;SDS011;6268;48.188;17.134;2024-02-16T03:34:10;31.27;;;28.08;;
12407;SDS011;6268;48.188;17.134;2024-02-16T03:36:39;30.05;;;26.95;;
12407;SDS011;6268;48.188;17.134;2024-02-16T03:39:08;30.20;;;26.92;;
12407;SDS011;6268;48.188;17.134;2024-02-16T03:41:36;30.83;;;27.63;;
12407;SDS011;6268;48.188;17.134;2024-02-16T03:44:04;31.42;;;28.27;;
12407;SDS011;6268;48.188;17.134;2024-02-16T03:46:33;31.45;;;26.92;;
12407;SDS011;6268;48.188;17.134;2024-02-16T03:49:05;31.75;;;27.90;;
12407;SDS011;6268;48.188;17.134;2024-02-16T03:51:34;34.65;;;27.00;;
12407;SDS011;6268;48.188;17.134;2024-02-16T03:54:03;30.13;;;27.17;;
12407;SDS011;6268;48.188;17.134;2024-02-16T03:56:32;30.63;;;27.23;;
12407;SDS011;6268;48.188;17.134;2024-02-16T03:59:01;31.27;;;27.98;;
12407;SDS011;6268;48.188;17.134;2024-02-16T04:01:32;29.92;;;26.75;;
12407;SDS011;6268;48.188;17.134;2024-02-16T04:04:00;29.88;;;26.83;;
12407;SDS011;6268;48.188;17.134;2024-02-16T04:06:31;30.67;;;25.98;;
12407;SDS011;6268;48.188;17.134;2024-02-16T04:08:59;29.50;;;26.38;;
12407;SDS011;6268;48.188;17.134;2024-02-16T04:11:28;28.80;;;25.65;;
12407;SDS011;6268;48.188;17.134;2024-02-16T04:13:57;30.95;;;27.27;;
12407;SDS011;6268;48.188;17.134;2024-02-16T04:16:25;31.05;;;26.13;;
12407;SDS011;6268;48.188;17.134;2024-02-16T04:18:54;31.10;;;26.50;;
12407;SDS011;6268;48.188;17.134;2024-02-16T04:21:23;29.98;;;25.30;;
12407;SDS011;6268;48.188;17.134;2024-02-16T04:23:53;31.10;;;25.15;;
12407;SDS011;6268;48.188;17.134;2024-02-16T04:26:21;31.50;;;26.02;;
12407;SDS011;6268;48.188;17.134;2024-02-16T04:28:50;29.67;;;26.50;;
12407;SDS011;6268;48.188;17.134;2024-02-16T04:31:18;32.97;;;25.30;;
12407;SDS011;6268;48.188;17.134;2024-02-16T04:33:46;32.42;;;26.65;;
12407;SDS011;6268;48.188;17.134;2024-02-16T04:36:15;31.85;;;28.23;;
12407;SDS011;6268;48.188;17.134;2024-02-16T04:38:44;31.48;;;27.38;;
12407;SDS011;6268;48.188;17.134;2024-02-16T04:41:14;44.58;;;34.65;;
12407;SDS011;6268;48.188;17.134;2024-02-16T04:43:42;31.92;;;25.80;;
12407;SDS011;6268;48.188;17.134;2024-02-16T04:46:13;32.22;;;25.08;;
12407;SDS011;6268;48.188;17.134;2024-02-16T04:48:42;31.15;;;26.52;;
12407;SDS011;6268;48.188;17.134;2024-02-16T04:51:11;32.85;;;26.15;;
12407;SDS011;6268;48.188;17.134;2024-02-16T04:53:39;35.90;;;27.00;;
12407;SDS011;6268;48.188;17.134;2024-02-16T04:56:08;64.75;;;44.60;;
12407;SDS011;6268;48.188;17.134;2024-02-16T04:58:41;41.35;;;29.60;;
12407;SDS011;6268;48.188;17.134;2024-02-16T05:01:09;30.35;;;24.55;;
12407;SDS011;6268;48.188;17.134;2024-02-16T05:03:37;32.88;;;25.65;;
12407;SDS011;6268;48.188;17.134;2024-02-16T05:06:08;30.50;;;24.67;;
12407;SDS011;6268;48.188;17.134;2024-02-16T05:08:36;32.05;;;24.77;;
12407;SDS011;6268;48.188;17.134;2024-02-16T05:11:04;27.13;;;23.30;;
12407;SDS011;6268;48.188;17.134;2024-02-16T05:13:35;29.77;;;25.27;;
12407;SDS011;6268;48.188;17.134;2024-02-16T05:16:08;29.15;;;23.95;;
12407;SDS011;6268;48.188;17.134;2024-02-16T05:18:37;32.53;;;24.75;;
12407;SDS011;6268;48.188;17.134;2024-02-16T05:21:07;30.42;;;25.63;;
12407;SDS011;6268;48.188;17.134;2024-02-16T05:23:36;31.08;;;25.75;;
12407;SDS011;6268;48.188;17.134;2024-02-16T05:26:04;30.15;;;23.20;;
12407;SDS011;6268;48.188;17.134;2024-02-16T05:28:33;29.60;;;25.05;;
12407;SDS011;6268;48.188;17.134;2024-02-16T05:31:04;28.90;;;24.90;;
12407;SDS011;6268;48.188;17.134;2024-02-16T05:33:44;29.90;;;23.55;;
12407;SDS011;6268;48.188;17.134;2024-02-16T05:36:16;33.30;;;24.70;;
12407;SDS011;6268;48.188;17.134;2024-02-16T05:38:46;30.58;;;25.30;;
12407;SDS011;6268;48.188;17.134;2024-02-16T05:41:15;29.50;;;24.05;;
12407;SDS011;6268;48.188;17.134;2024-02-16T05:43:44;40.28;;;32.40;;
12407;SDS011;6268;48.188;17.134;2024-02-16T05:46:14;31.73;;;25.92;;
12407;SDS011;6268;48.188;17.134;2024-02-16T05:48:43;31.98;;;24.17;;
12407;SDS011;6268;48.188;17.134;2024-02-16T05:51:12;30.75;;;24.20;;
12407;SDS011;6268;48.188;17.134;2024-02-16T05:53:41;32.72;;;25.58;;
12407;SDS011;6268;48.188;17.134;2024-02-16T05:56:11;31.75;;;24.42;;
12407;SDS011;6268;48.188;17.134;2024-02-16T05:58:40;29.58;;;25.13;;
12407;SDS011;6268;48.188;17.134;2024-02-16T06:01:08;29.00;;;24.53;;
12407;SDS011;6268;48.188;17.134;2024-02-16T06:03:42;27.98;;;23.08;;
12407;SDS011;6268;48.188;17.134;2024-02-16T06:06:10;33.78;;;24.73;;
12407;SDS011;6268;48.188;17.134;2024-02-16T06:08:39;31.50;;;23.65;;
12407;SDS011;6268;48.188;17.134;2024-02-16T06:11:07;31.00;;;23.33;;
12407;SDS011;6268;48.188;17.134;2024-02-16T06:13:36;29.30;;;24.63;;
12407;SDS011;6268;48.188;17.134;2024-02-16T06:16:05;28.55;;;25.05;;
12407;SDS011;6268;48.188;17.134;2024-02-16T06:18:35;29.30;;;24.50;;
12407;SDS011;6268;48.188;17.134;2024-02-16T06:21:05;28.13;;;22.95;;
12407;SDS011;6268;48.188;17.134;2024-02-16T06:23:34;31.15;;;24.63;;
12407;SDS011;6268;48.188;17.134;2024-02-16T06:26:02;26.48;;;23.30;;
12407;SDS011;6268;48.188;17.134;2024-02-16T06:28:33;26.55;;;23.65;;
12407;SDS011;6268;48.188;17.134;2024-02-16T06:31:01;30.02;;;24.67;;
12407;SDS011;6268;48.188;17.134;2024-02-16T06:33:31;28.05;;;25.17;;
12407;SDS011;6268;48.188;17.134;2024-02-16T06:35:59;26.85;;;22.95;;
12407;SDS011;6268;48.188;17.134;2024-02-16T06:38:29;28.35;;;23.67;;
12407;SDS011;6268;48.188;17.134;2024-02-16T06:40:58;32.97;;;24.45;;
12407;SDS011;6268;48.188;17.134;2024-02-16T06:43:26;26.25;;;22.80;;
12407;SDS011;6268;48.188;17.134;2024-02-16T06:45:55;27.05;;;23.73;;
12407;SDS011;6268;48.188;17.134;2024-02-16T06:48:23;24.42;;;21.92;;
12407;SDS011;6268;48.188;17.134;2024-02-16T06:50:52;31.20;;;26.40;;
12407;SDS011;6268;48.188;17.134;2024-02-16T06:53:21;33.72;;;27.85;;
12407;SDS011;6268;48.188;17.134;2024-02-16T06:55:50;25.55;;;22.80;;
12407;SDS011;6268;48.188;17.134;2024-02-16T06:58:19;25.00;;;22.30;;
12407;SDS011;6268;48.188;17.134;2024-02-16T07:00:47;25.67;;;23.13;;
12407;SDS011;6268;48.188;17.134;2024-02-16T07:03:16;25.70;;;22.90;;
12407;SDS011;6268;48.188;17.134;2024-02-16T07:05:45;30.25;;;24.20;;
12407;SDS011;6268;48.188;17.134;2024-02-16T07:08:13;28.88;;;23.45;;
12407;SDS011;6268;48.188;17.134;2024-02-16T07:10:41;23.77;;;21.27;;
12407;SDS011;6268;48.188;17.134;2024-02-16T07:13:11;25.70;;;22.15;;
12407;SDS011;6268;48.188;17.134;2024-02-16T07:15:40;25.27;;;22.58;;
12407;SDS011;6268;48.188;17.134;2024-02-16T07:18:08;27.15;;;22.52;;
12407;SDS011;6268;48.188;17.134;2024-02-16T07:20:37;26.30;;;23.65;;
12407;SDS011;6268;48.188;17.134;2024-02-16T07:23:06;25.55;;;22.38;;
12407;SDS011;6268;48.188;17.134;2024-02-16T07:25:36;32.47;;;29.00;;
12407;SDS011;6268;48.188;17.134;2024-02-16T07:28:04;27.77;;;24.40;;
12407;SDS011;6268;48.188;17.134;2024-02-16T07:30:34;26.52;;;22.33;;
12407;SDS011;6268;48.188;17.134;2024-02-16T07:33:09;22.23;;;19.67;;
12407;SDS011;6268;48.188;17.134;2024-02-16T07:35:38;24.15;;;20.75;;
12407;SDS011;6268;48.188;17.134;2024-02-16T07:38:06;22.35;;;19.95;;
12407;SDS011;6268;48.188;17.134;2024-02-16T07:40:34;22.63;;;19.83;;
12407;SDS011;6268;48.188;17.134;2024-02-16T07:43:03;23.65;;;21.15;;
12407;SDS011;6268;48.188;17.134;2024-02-16T07:45:32;23.20;;;20.70;;
12407;SDS011;6268;48.188;17.134;2024-02-16T07:48:02;23.80;;;20.48;;
12407;SDS011;6268;48.188;17.134;2024-02-16T07:50:32;22.90;;;20.50;;
12407;SDS011;6268;48.188;17.134;2024-02-16T07:53:01;21.90;;;19.50;;
12407;SDS011;6268;48.188;17.134;2024-02-16T07:55:29;21.13;;;18.83;;
12407;SDS011;6268;48.188;17.134;2024-02-16T07:57:58;22.05;;;19.70;;
12407;SDS011;6268;48.188;17.134;2024-02-16T08:00:26;23.15;;;20.67;;
12407;SDS011;6268;48.188;17.134;2024-02-16T08:02:55;23.02;;;19.00;;
12407;SDS011;6268;48.188;17.134;2024-02-16T08:05:25;21.88;;;18.65;;
12407;SDS011;6268;48.188;17.134;2024-02-16T08:07:54;24.70;;;20.13;;
12407;SDS011;6268;48.188;17.134;2024-02-16T08:10:23;20.05;;;17.95;;
12407;SDS011;6268;48.188;17.134;2024-02-16T08:12:52;23.23;;;20.38;;
12407;SDS011;6268;48.188;17.134;2024-02-16T08:15:20;22.25;;;19.70;;
12407;SDS011;6268;48.188;17.134;2024-02-16T08:17:51;22.17;;;19.88;;
12407;SDS011;6268;48.188;17.134;2024-02-16T08:20:20;21.90;;;19.63;;
12407;SDS011;6268;48.188;17.134;2024-02-16T08:22:50;23.33;;;19.65;;
12407;SDS011;6268;48.188;17.134;2024-02-16T08:25:19;24.50;;;20.80;;
12407;SDS011;6268;48.188;17.134;2024-02-16T08:27:47;23.85;;;20.20;;
12407;SDS011;6268;48.188;17.134;2024-02-16T08:30:17;22.88;;;20.20;;
12407;SDS011;6268;48.188;17.134;2024-02-16T08:32:46;22.73;;;20.15;;
12407;SDS011;6268;48.188;17.134;2024-02-16T08:35:14;21.40;;;19.13;;
12407;SDS011;6268;48.188;17.134;2024-02-16T08:37:44;23.33;;;20.80;;
12407;SDS011;6268;48.188;17.134;2024-02-16T08:40:14;23.88;;;20.58;;
12407;SDS011;6268;48.188;17.134;2024-02-16T08:42:42;22.60;;;20.30;;
12407;SDS011;6268;48.188;17.134;2024-02-16T08:45:11;23.88;;;20.15;;
12407;SDS011;6268;48.188;17.134;2024-02-16T08:47:41;21.08;;;18.45;;
12407;SDS011;6268;48.188;17.134;2024-02-16T08:50:10;23.90;;;19.73;;
12407;SDS011;6268;48.188;17.134;2024-02-16T08:52:40;24.30;;;19.60;;
12407;SDS011;6268;48.188;17.134;2024-02-16T08:55:08;23.50;;;20.05;;
12407;SDS011;6268;48.188;17.134;2024-02-16T08:57:38;26.02;;;20.60;;
12407;SDS011;6268;48.188;17.134;2024-02-16T09:00:07;24.13;;;20.08;;
12407;SDS011;6268;48.188;17.134;2024-02-16T09:02:36;27.30;;;19.73;;
12407;SDS011;6268;48.188;17.134;2024-02-16T09:05:05;24.73;;;19.42;;
12407;SDS011;6268;48.188;17.134;2024-02-16T09:07:36;21.23;;;18.92;;
12407;SDS011;6268;48.188;17.134;2024-02-16T09:10:05;23.33;;;19.23;;
12407;SDS011;6268;48.188;17.134;2024-02-16T09:12:34;27.95;;;22.08;;
12407;SDS011;6268;48.188;17.134;2024-02-16T09:15:04;23.83;;;18.20;;
12407;SDS011;6268;48.188;17.134;2024-02-16T09:17:34;32.08;;;25.98;;
12407;SDS011;6268;48.188;17.134;2024-02-16T09:20:02;21.75;;;19.40;;
12407;SDS011;6268;48.188;17.134;2024-02-16T09:22:31;21.52;;;16.80;;
12407;SDS011;6268;48.188;17.134;2024-02-16T09:25:04;20.05;;;17.88;;
12407;SDS011;6268;48.188;17.134;2024-02-16T09:27:33;21.73;;;18.23;;
12407;SDS011;6268;48.188;17.134;2024-02-16T09:30:07;21.42;;;16.67;;
12407;SDS011;6268;48.188;17.134;2024-02-16T09:32:38;17.92;;;16.15;;
12407;SDS011;6268;48.188;17.134;2024-02-16T09:35:07;19.10;;;17.08;;
12407;SDS011;6268;48.188;17.134;2024-02-16T09:37:36;22.27;;;16.95;;
12407;SDS011;6268;48.188;17.134;2024-02-16T09:40:06;18.10;;;16.00;;
12407;SDS011;6268;48.188;17.134;2024-02-16T09:42:37;19.20;;;16.95;;
12407;SDS011;6268;48.188;17.134;2024-02-16T09:45:08;20.08;;;17.98;;
12407;SDS011;6268;48.188;17.134;2024-02-16T09:47:40;20.50;;;18.33;;
12407;SDS011;6268;48.188;17.134;2024-02-16T09:50:26;17.58;;;15.80;;
12407;SDS011;6268;48.188;17.134;2024-02-16T09:52:56;18.83;;;16.92;;
12407;SDS011;6268;48.188;17.134;2024-02-16T09:55:24;18.92;;;17.05;;
12407;SDS011;6268;48.188;17.134;2024-02-16T09:57:58;24.40;;;18.20;;
12407;SDS011;6268;48.188;17.134;2024-02-16T10:00:28;27.05;;;24.27;;
12407;SDS011;6268;48.188;17.134;2024-02-16T10:02:57;24.27;;;21.08;;
12407;SDS011;6268;48.188;17.134;2024-02-16T10:05:25;17.02;;;15.23;;
12407;SDS011;6268;48.188;17.134;2024-02-16T10:07:54;17.83;;;15.13;;
12407;SDS011;6268;48.188;17.134;2024-02-16T10:10:22;18.55;;;16.58;;
12407;SDS011;6268;48.188;17.134;2024-02-16T10:15:32;18.95;;;16.13;;
12407;SDS011;6268;48.188;17.134;2024-02-16T10:18:01;15.57;;;13.98;;
12407;SDS011;6268;48.188;17.134;2024-02-16T10:20:31;18.27;;;14.70;;
12407;SDS011;6268;48.188;17.134;2024-02-16T10:23:04;17.13;;;14.52;;
12407;SDS011;6268;48.188;17.134;2024-02-16T10:25:33;17.90;;;15.80;;
12407;SDS011;6268;48.188;17.134;2024-02-16T10:28:05;20.50;;;18.40;;
12407;SDS011;6268;48.188;17.134;2024-02-16T10:30:36;16.92;;;15.25;;
12407;SDS011;6268;48.188;17.134;2024-02-16T10:33:06;17.17;;;15.27;;
12407;SDS011;6268;48.188;17.134;2024-02-16T10:35:35;20.65;;;18.13;;
12407;SDS011;6268;48.188;17.134;2024-02-16T10:38:04;20.15;;;18.05;;
12407;SDS011;6268;48.188;17.134;2024-02-16T10:40:37;20.38;;;18.30;;
12407;SDS011;6268;48.188;17.134;2024-02-16T10:43:07;20.60;;;16.95;;
12407;SDS011;6268;48.188;17.134;2024-02-16T10:45:38;20.15;;;18.08;;
12407;SDS011;6268;48.188;17.134;2024-02-16T10:48:07;22.95;;;19.58;;
12407;SDS011;6268;48.188;17.134;2024-02-16T10:50:36;21.95;;;19.40;;
12407;SDS011;6268;48.188;17.134;2024-02-16T10:53:08;19.17;;;14.25;;
12407;SDS011;6268;48.188;17.134;2024-02-16T10:55:40;16.98;;;15.27;;
12407;SDS011;6268;48.188;17.134;2024-02-16T10:58:10;15.15;;;10.57;;
12407;SDS011;6268;48.188;17.134;2024-02-16T11:00:49;11.52;;;10.27;;
12407;SDS011;6268;48.188;17.134;2024-02-16T11:03:21;11.32;;;10.23;;
12407;SDS011;6268;48.188;17.134;2024-02-16T11:05:55;10.25;;;9.18;;
12407;SDS011;6268;48.188;17.134;2024-02-16T11:08:25;13.63;;;9.93;;
12407;SDS011;6268;48.188;17.134;2024-02-16T11:10:59;11.90;;;10.00;;
12407;SDS011;6268;48.188;17.134;2024-02-16T11:13:31;12.57;;;10.07;;
12407;SDS011;6268;48.188;17.134;2024-02-16T11:16:03;11.55;;;10.38;;
12407;SDS011;6268;48.188;17.134;2024-02-16T11:18:37;18.52;;;15.65;;
12407;SDS011;6268;48.188;17.134;2024-02-16T11:21:07;17.83;;;16.00;;
12407;SDS011;6268;48.188;17.134;2024-02-16T11:23:39;22.42;;;19.38;;
12407;SDS011;6268;48.188;17.134;2024-02-16T11:26:08;17.45;;;15.75;;
12407;SDS011;6268;48.188;17.134;2024-02-16T11:28:40;12.23;;;10.68;;
12407;SDS011;6268;48.188;17.134;2024-02-16T11:31:10;11.60;;;10.40;;
12407;SDS011;6268;48.188;17.134;2024-02-16T11:33:42;16.95;;;15.32;;
12407;SDS011;6268;48.188;17.134;2024-02-16T11:36:12;11.32;;;9.60;;
12407;SDS011;6268;48.188;17.134;2024-02-16T11:38:40;15.05;;;12.38;;
12407;SDS011;6268;48.188;17.134;2024-02-16T11:41:09;12.52;;;11.23;;
12407;SDS011;6268;48.188;17.134;2024-02-16T11:43:38;12.10;;;11.00;;
12407;SDS011;6268;48.188;17.134;2024-02-16T11:46:14;14.63;;;10.38;;
12407;SDS011;6268;48.188;17.134;2024-02-16T11:48:44;10.48;;;9.43;;
12407;SDS011;6268;48.188;17.134;2024-02-16T11:51:15;11.80;;;9.98;;
12407;SDS011;6268;48.188;17.134;2024-02-16T11:53:44;12.35;;;10.73;;
12407;SDS011;6268;48.188;17.134;2024-02-16T11:56:22;10.38;;;9.43;;
12407;SDS011;6268;48.188;17.134;2024-02-16T11:58:52;11.43;;;9.40;;
12407;SDS011;6268;48.188;17.134;2024-02-16T12:01:22;10.07;;;9.05;;
12407;SDS011;6268;48.188;17.134;2024-02-16T12:03:51;10.40;;;9.18;;
12407;SDS011;6268;48.188;17.134;2024-02-16T12:06:20;9.75;;;8.85;;
12407;SDS011;6268;48.188;17.134;2024-02-16T12:08:49;10.35;;;8.48;;
12407;SDS011;6268;48.188;17.134;2024-02-16T12:11:20;9.80;;;8.80;;
12407;SDS011;6268;48.188;17.134;2024-02-16T12:13:48;10.77;;;9.77;;
12407;SDS011;6268;48.188;17.134;2024-02-16T12:16:18;11.40;;;10.35;;
12407;SDS011;6268;48.188;17.134;2024-02-16T12:18:49;11.70;;;10.65;;
12407;SDS011;6268;48.188;17.134;2024-02-16T12:21:17;9.82;;;8.80;;
12407;SDS011;6268;48.188;17.134;2024-02-16T12:23:47;8.48;;;7.60;;
12407;SDS011;6268;48.188;17.134;2024-02-16T12:26:16;11.00;;;8.85;;
12407;SDS011;6268;48.188;17.134;2024-02-16T12:28:45;9.43;;;8.48;;
12407;SDS011;6268;48.188;17.134;2024-02-16T12:31:17;15.98;;;10.45;;
12407;SDS011;6268;48.188;17.134;2024-02-16T12:33:47;12.52;;;9.15;;
12407;SDS011;6268;48.188;17.134;2024-02-16T12:36:17;9.85;;;8.88;;
12407;SDS011;6268;48.188;17.134;2024-02-16T12:38:46;10.90;;;9.18;;
12407;SDS011;6268;48.188;17.134;2024-02-16T12:41:14;10.90;;;9.63;;
12407;SDS011;6268;48.188;17.134;2024-02-16T12:43:42;14.60;;;11.15;;
12407;SDS011;6268;48.188;17.134;2024-02-16T12:46:11;12.77;;;11.48;;
12407;SDS011;6268;48.188;17.134;2024-02-16T12:48:39;11.25;;;10.15;;
12407;SDS011;6268;48.188;17.134;2024-02-16T12:51:13;18.60;;;15.00;;
12407;SDS011;6268;48.188;17.134;2024-02-16T12:53:42;15.52;;;13.90;;
12407;SDS011;6268;48.188;17.134;2024-02-16T12:56:10;10.85;;;9.73;;
12407;SDS011;6268;48.188;17.134;2024-02-16T12:58:39;11.43;;;10.30;;
12407;SDS011;6268;48.188;17.134;2024-02-16T13:01:07;16.75;;;12.85;;
12407;SDS011;6268;48.188;17.134;2024-02-16T13:03:48;15.82;;;12.85;;
12407;SDS011;6268;48.188;17.134;2024-02-16T13:06:19;12.93;;;10.15;;
12407;SDS011;6268;48.188;17.134;2024-02-16T13:08:53;12.98;;;11.32;;
12407;SDS011;6268;48.188;17.134;2024-02-16T13:11:22;17.65;;;13.82;;
12407;SDS011;6268;48.188;17.134;2024-02-16T13:13:50;16.08;;;13.77;;
12407;SDS011;6268;48.188;17.134;2024-02-16T13:16:19;19.83;;;17.52;;
12407;SDS011;6268;48.188;17.134;2024-02-16T13:18:48;21.30;;;18.55;;
12407;SDS011;6268;48.188;17.134;2024-02-16T13:21:16;18.98;;;17.08;;
12407;SDS011;6268;48.188;17.134;2024-02-16T13:23:46;19.30;;;15.35;;
12407;SDS011;6268;48.188;17.134;2024-02-16T13:26:15;17.33;;;15.52;;
12407;SDS011;6268;48.188;17.134;2024-02-16T13:28:44;15.43;;;13.77;;
12407;SDS011;6268;48.188;17.134;2024-02-16T13:31:12;19.08;;;14.80;;
12407;SDS011;6268;48.188;17.134;2024-02-16T13:33:41;16.20;;;11.90;;
12407;SDS011;6268;48.188;17.134;2024-02-16T13:36:09;15.82;;;11.10;;
12407;SDS011;6268;48.188;17.134;2024-02-16T13:38:38;16.38;;;13.35;;
12407;SDS011;6268;48.188;17.134;2024-02-16T13:41:07;13.05;;;11.60;;
12407;SDS011;6268;48.188;17.134;2024-02-16T13:43:36;13.77;;;11.00;;
12407;SDS011;6268;48.188;17.134;2024-02-16T13:46:04;14.15;;;12.68;;
12407;SDS011;6268;48.188;17.134;2024-02-16T13:48:33;12.20;;;10.82;;
12407;SDS011;6268;48.188;17.134;2024-02-16T13:51:04;20.08;;;14.15;;
12407;SDS011;6268;48.188;17.134;2024-02-16T13:53:34;21.42;;;19.05;;
12407;SDS011;6268;48.188;17.134;2024-02-16T13:56:03;14.27;;;12.77;;
12407;SDS011;6268;48.188;17.134;2024-02-16T13:58:34;20.80;;;18.60;;
12407;SDS011;6268;48.188;17.134;2024-02-16T14:01:04;22.48;;;18.27;;
12407;SDS011;6268;48.188;17.134;2024-02-16T14:03:33;14.13;;;12.73;;
12407;SDS011;6268;48.188;17.134;2024-02-16T14:06:03;18.20;;;15.32;;
12407;SDS011;6268;48.188;17.134;2024-02-16T14:08:35;17.70;;;14.20;;
12407;SDS011;6268;48.188;17.134;2024-02-16T14:11:03;13.02;;;11.70;;
12407;SDS011;6268;48.188;17.134;2024-02-16T14:13:36;14.38;;;11.80;;
12407;SDS011;6268;48.188;17.134;2024-02-16T14:16:05;26.25;;;20.83;;
12407;SDS011;6268;48.188;17.134;2024-02-16T14:18:34;12.25;;;11.07;;
12407;SDS011;6268;48.188;17.134;2024-02-16T14:21:03;12.13;;;10.98;;
12407;SDS011;6268;48.188;17.134;2024-02-16T14:23:31;27.77;;;22.52;;
12407;SDS011;6268;48.188;17.134;2024-02-16T14:26:00;19.67;;;16.52;;
12407;SDS011;6268;48.188;17.134;2024-02-16T14:28:28;14.93;;;13.48;;
12407;SDS011;6268;48.188;17.134;2024-02-16T14:30:58;15.60;;;12.20;;
12407;SDS011;6268;48.188;17.134;2024-02-16T14:33:26;15.18;;;13.45;;
12407;SDS011;6268;48.188;17.134;2024-02-16T14:36:00;14.77;;;13.35;;
12407;SDS011;6268;48.188;17.134;2024-02-16T14:38:29;14.30;;;12.70;;